PILOTS ONLINE: 394    ATC ONLINE: 43

MDPC

Punta Cana International Airport

Location

IATA PUJ
City Punta Cana
Country  Dominican Republic
Latitude 18° 34' 2" N
Longitude 68° 21' 48" W
Elevation 47 ft
Type Large Airport

Map

Weather

METAR
2014/10/24 12:00
MDPC 241200Z 00000KT 9999 FEW020 BKN300 26/25 Q1013
TAF
2014/10/24 12:06
TAF MDPC 241000Z 2412/2512 00000KT 9999 FEW018 SCT300 
      BECMG 2414/2416 15006KT

Runways

09/27 10171 ft / 157 ft

Outbound flights

Callsign Flying to Pilot ATD/STD ETA Aircraft

Inbound flights

Callsign Flying from Pilot ATD ETA Aircraft